KBJJ/BJJ METAR and TAF weather

Enter ICAO airport designator
Station Type Date Time Source
KBJJ METAR 2023/02/04 01:56 UTC NOAA

KBJJ 040156Z AUTO 00000KT 10SM CLR M14/M17 A3052 RMK AO2 SLP361 T11391172


Station Type Date Time Source
KBJJ Decoded METAR 2023/02/04 01:56 UTC NOAA

WOOSTER WAYNE COUNTY AIRPORT, OH, United States (KBJJ) 40-52N 81-53W 343M
Feb 03, 2023 - 08:56 PM EST / 2023.02.04 0156 UTC
Wind: Calm:0
Visibility: 10 mile(s):0
Sky conditions: clear
Temperature: 7.0 F (-13.9 C)
Dew Point: 1.0 F (-17.2 C)
Relative Humidity: 76%
Pressure (altimeter): 30.52 in. Hg (1033 hPa)
ob: KBJJ 040156Z AUTO 00000KT 10SM CLR M14/M17 A3052 RMK AO2 SLP361 T11391172
cycle: 2

Station Type Date Time Source
KBJJ TAF UTC NOAA

Error!

Example: see airport list